Harnell Park, Minnesota
Current Conditions -  °F | °C
As of 4:55 AM on Wednesday 22 Oct 2014 (Local Time) from KDLH Reporting Station
Clear Clear  
Wind Chill:   Ceiling: Unl
Heat Index:   Visibility: 10mi
Dew Point:   Wind: 8mph
Humidity: 79%   Direction: 150°SSE
Pressure: 30.19"   Gusts: NA
Location:  46.8859°N, 92.4258°W
Report Text: KDLH 220955Z 15007KT 10SM CLR 04/01 A3019 RMK AO2 SLP237 T00440011
Loading
Personal Weather Stations






























Interactive Weather Map
Tropical Storm Tracking
New forecast layout! Learn more

10-Day Weather Forecast

Advertisements
Track Severe Weather on mobile